Holly Ridge, Mississippi
Current Conditions -  °F | °C
As of 6:53 PM on Sunday 23 Nov 2014 (Local Time) from KGLH Reporting Station
Clear Clear  
Wind Chill: 61°   Ceiling: Unl
Heat Index: 61°   Visibility: 10mi
Dew Point: 57°   Wind: 12mph
Humidity: 87%   Direction: 180°S
Pressure: 29.48"   Gusts: NA
Location:  33.45°N, 90.75°W
Report Text: KGLH 240053Z AUTO 18010KT 10SM CLR 16/14 A2948 RMK AO2 SLP989 T01610139 $
Loading
Personal Weather Stations






























Interactive Weather Map New forecast layout! Learn more

10-Day Weather Forecast

Advertisements
Track Severe Weather on mobile